South Plainfield, NJ (07080)

9:51 PM EST on December 24, 2014 (GMT -0500)
Bunny Cove Farm-South Plainfield | Change Station
CLOSE
Current Station
Personal Weather Station
Location: South Plainfield, NJ
Elevation: 83 ft
Nearby Weather Stations
Active Advisory: Special Statement

Elev 83 ft 40.58 °N, 74.41 °W | Updated 1 second ago

Overcast
Overcast
53.4 °F
Feels Like 53.4 °F
N
0.0
Wind Variable Wind from NW
Gusts 0.0 mph

Today
High -- | Low -- °F
--% Chance of Precip.
Yesterday
High -- | Low -- °F
Precip. -- in
7:19 AM 4:35 PM
Waxing Crescent, 12% visible
Pressure 29.60 in
Visibility 2.5 miles
Clouds Overcast 400 ft
Dew Point 53 °F
Humidity 97%
Rainfall 1.09 in
Snow Depth Not available.
UV 0 out of 12
Pollen .10 out of 12
Air Quality Not available.
Flu Activity Not available.
METAR KLDJ 250235Z AUTO 00000KT 2 1/2SM RA OVC004 14/13 A2960 RMK AO2 T01360133

More Conditions Fewer Conditions

Pressure 29.60 in
Visibility 2.5 miles
Clouds Overcast 400 ft
Dew Point 53 °F
Humidity 97%
Rainfall 1.09 in
Snow Depth Not available.
UV 0 out of 12
Pollen .10 out of 12
Air Quality Not available.
Flu Activity Not available.
METAR KLDJ 250235Z AUTO 00000KT 2 1/2SM RA OVC004 14/13 A2960 RMK AO2 T01360133

More Conditions Fewer Conditions

10-Day Weather Forecast

Almanac

Astronomy

Dec. 24, 2014 Rise Set
Actual Time
Civil Twilight
Nautical Twilight
Astronomical Twilight
Moon
Length of Visible Light
Length of Day
Tomorrow will be .
, % of the Moon is Illuminated

Today's Extremes

State Highs State Lows

Community

WunderPhotos

Upload Photos

1,780,215 photos uploaded!

WunderBlogs® & News

Nearby

Air Quality

  Air Quality AQ Index Pollutant
Not available.

Snow Depth

Station Depth Elevation

Earthquake Activity

City Distance Mag. Time & Date
Minimum magnitude displayed is 2.5.

Coastal Water Temperatures

Place Temperature

Nearby Weather Stations